createdAt,value
2023-04-02T00:01:51.016Z,100461.81
2023-04-02T00:04:22.312Z,100460.84
2023-04-02T00:06:49.157Z,100472.53
2023-04-02T00:09:15.980Z,100481.91
2023-04-02T00:11:42.718Z,100481.53
2023-04-02T00:14:09.677Z,100485.00
2023-04-02T00:16:36.493Z,100489.91
2023-04-02T00:19:03.309Z,100496.03
2023-04-02T00:21:30.292Z,100497.72
2023-04-02T00:23:57.079Z,100504.91
2023-04-02T00:26:23.856Z,100499.75
2023-04-02T00:28:51.128Z,100513.50
2023-04-02T00:31:17.896Z,100515.22
2023-04-02T00:33:44.644Z,100520.38
2023-04-02T00:36:11.495Z,100520.75
2023-04-02T00:38:40.187Z,100532.41
2023-04-02T00:41:06.934Z,100534.00
2023-04-02T00:43:33.700Z,100534.16
2023-04-02T00:46:01.174Z,100543.47
2023-04-02T00:48:27.988Z,100550.81
2023-04-02T00:50:54.728Z,100557.75
2023-04-02T00:53:21.619Z,100560.44
2023-04-02T00:55:48.351Z,100559.06
2023-04-02T00:58:15.583Z,100565.47
2023-04-02T01:00:42.538Z,100571.72
2023-04-02T01:03:11.140Z,100573.97
2023-04-02T01:05:38.021Z,100580.00
2023-04-02T01:08:04.834Z,100579.88
2023-04-02T01:10:31.594Z,100581.66
2023-04-02T01:12:58.375Z,100587.19
2023-04-02T01:15:25.463Z,100591.59
2023-04-02T01:17:54.330Z,100597.25
2023-04-02T01:20:22.526Z,100592.34
2023-04-02T01:22:49.319Z,100598.97
2023-04-02T01:25:17.656Z,100603.09
2023-04-02T01:27:44.419Z,100604.88
2023-04-02T01:30:12.374Z,100614.75
2023-04-02T01:32:39.148Z,100614.44
2023-04-02T01:35:05.950Z,100610.34
2023-04-02T01:37:32.728Z,100620.97
2023-04-02T01:39:59.461Z,100632.25
2023-04-02T01:42:26.210Z,100632.38
2023-04-02T01:44:53.038Z,100647.91
2023-04-02T01:47:19.781Z,100645.53
2023-04-02T01:49:46.544Z,100649.28
2023-04-02T01:52:13.517Z,100648.59
2023-04-02T01:54:40.609Z,100655.66
2023-04-02T01:57:07.406Z,100658.97
2023-04-02T01:59:34.230Z,100666.34
2023-04-02T02:02:01.238Z,100667.50
2023-04-02T02:04:28.068Z,100670.09
2023-04-02T02:06:54.859Z,100676.38
2023-04-02T02:09:23.066Z,100684.28
2023-04-02T02:11:49.959Z,100687.19
2023-04-02T02:14:16.798Z,100686.34
2023-04-02T02:16:43.597Z,100688.84
2023-04-02T02:19:10.503Z,100696.19
2023-04-02T02:21:37.313Z,100694.19
2023-04-02T02:24:04.786Z,100694.53
2023-04-02T02:26:33.808Z,100703.47
2023-04-02T02:29:00.753Z,100705.78
2023-04-02T02:31:27.851Z,100710.47
2023-04-02T02:33:54.666Z,100715.09
2023-04-02T02:36:22.804Z,100721.91
2023-04-02T02:38:49.709Z,100719.81
2023-04-02T02:41:16.486Z,100733.75
2023-04-02T02:43:43.247Z,100738.16
2023-04-02T02:46:10.194Z,100746.41
2023-04-02T02:48:37.037Z,100742.66
2023-04-02T02:51:03.798Z,100744.31
2023-04-02T02:53:30.539Z,100745.94
2023-04-02T02:55:57.278Z,100746.31
2023-04-02T02:58:26.319Z,100751.81
2023-04-02T03:00:53.101Z,100757.16
2023-04-02T03:03:20.221Z,100759.13
2023-04-02T03:05:47.905Z,100757.44
2023-04-02T03:08:14.684Z,100770.78
2023-04-02T03:10:41.442Z,100768.13
2023-04-02T03:13:08.482Z,100771.38
2023-04-02T03:15:35.541Z,100780.84
2023-04-02T03:18:02.521Z,100792.56
2023-04-02T03:20:29.347Z,100781.88
2023-04-02T03:22:56.129Z,100799.03
2023-04-02T03:25:22.915Z,100802.78
2023-04-02T03:27:49.712Z,100799.75
2023-04-02T03:30:16.477Z,100817.91
2023-04-02T03:32:43.327Z,100825.53
2023-04-02T03:35:10.631Z,100831.75
2023-04-02T03:37:37.385Z,100832.72
2023-04-02T03:40:04.492Z,100835.41
2023-04-02T03:42:31.283Z,100835.56
2023-04-02T03:44:58.092Z,100847.41
2023-04-02T03:47:25.010Z,100848.09
2023-04-02T03:49:51.781Z,100851.72
2023-04-02T03:52:18.561Z,100856.69
2023-04-02T03:54:54.226Z,100862.22
2023-04-02T03:57:21.687Z,100875.22
2023-04-02T03:59:48.451Z,100874.28
2023-04-02T04:02:15.719Z,100880.72
2023-04-02T04:04:42.510Z,100882.88
2023-04-02T04:07:09.263Z,100880.97
2023-04-02T04:09:36.193Z,100900.13
2023-04-02T04:12:03.032Z,100900.72
2023-04-02T04:14:29.815Z,100912.13
2023-04-02T04:16:56.587Z,100919.19
2023-04-02T04:19:23.414Z,100922.81
2023-04-02T04:21:50.175Z,100926.19
2023-04-02T04:24:17.085Z,100934.31
2023-04-02T04:26:43.885Z,100946.38
2023-04-02T04:29:12.287Z,100946.53
2023-04-02T04:31:39.415Z,100954.53
2023-04-02T04:34:06.326Z,100959.09
2023-04-02T04:36:33.123Z,100961.41
2023-04-02T04:38:59.907Z,100969.81
2023-04-02T04:41:26.671Z,100970.38
2023-04-02T04:43:53.461Z,100976.53
2023-04-02T04:46:20.380Z,100975.69
2023-04-02T04:48:47.196Z,100990.47
2023-04-02T04:51:13.998Z,100988.28
2023-04-02T04:53:40.746Z,100996.34
2023-04-02T04:56:18.634Z,101001.25
2023-04-02T04:58:46.600Z,101017.66
2023-04-02T05:01:13.403Z,101012.31
2023-04-02T05:03:40.299Z,101019.69
2023-04-02T05:06:07.086Z,101030.50
2023-04-02T05:08:33.869Z,101030.91
2023-04-02T05:11:00.629Z,101037.63
2023-04-02T05:13:27.721Z,101042.69
2023-04-02T05:15:54.700Z,101047.28
2023-04-02T05:18:21.531Z,101047.50
2023-04-02T05:20:48.268Z,101059.94
2023-04-02T05:23:15.263Z,101066.25
2023-04-02T05:25:42.014Z,101062.38
2023-04-02T05:28:08.751Z,101070.94
2023-04-02T05:30:35.513Z,101072.47
2023-04-02T05:33:04.654Z,101081.72
2023-04-02T05:35:31.868Z,101089.34
2023-04-02T05:37:58.768Z,101084.59
2023-04-02T05:40:25.557Z,101093.41
2023-04-02T05:42:55.699Z,101095.63
2023-04-02T05:45:22.533Z,101095.16
2023-04-02T05:47:49.334Z,101106.56
2023-04-02T05:50:16.899Z,101105.81
2023-04-02T05:52:43.644Z,101105.84
2023-04-02T05:55:10.548Z,101110.91
2023-04-02T05:57:44.624Z,101114.38
2023-04-02T06:00:13.761Z,101114.78
2023-04-02T06:02:41.319Z,101122.38
2023-04-02T06:05:08.149Z,101135.34
2023-04-02T06:07:34.904Z,101142.50
2023-04-02T06:10:04.967Z,101153.06
2023-04-02T06:12:31.752Z,101151.25
2023-04-02T06:14:58.552Z,101160.94
2023-04-02T06:17:25.482Z,101163.06
2023-04-02T06:19:52.391Z,101167.19
2023-04-02T06:22:19.334Z,101170.53
2023-04-02T06:24:46.144Z,101174.72
2023-04-02T06:27:12.890Z,101181.47
2023-04-02T06:29:40.067Z,101189.72
2023-04-02T06:32:06.946Z,101182.94
2023-04-02T06:34:33.765Z,101195.16
2023-04-02T06:37:00.682Z,101201.31
2023-04-02T06:39:27.500Z,101206.72
2023-04-02T06:41:54.241Z,101219.88
2023-04-02T06:44:21.268Z,101212.22
2023-04-02T06:46:50.559Z,101222.06
2023-04-02T06:49:19.135Z,101224.41
2023-04-02T06:51:45.975Z,101227.81
2023-04-02T06:54:12.721Z,101239.94
2023-04-02T06:56:39.460Z,101238.94
2023-04-02T06:59:07.418Z,101234.00
2023-04-02T07:01:34.339Z,101238.81
2023-04-02T07:04:01.271Z,101247.22
2023-04-02T07:06:28.177Z,101250.03
2023-04-02T07:08:54.960Z,101251.69
2023-04-02T07:11:21.877Z,101252.06
2023-04-02T07:13:48.673Z,101260.97
2023-04-02T07:16:15.679Z,101262.19
2023-04-02T07:18:42.695Z,101271.88
2023-04-02T07:21:09.472Z,101275.66
2023-04-02T07:23:36.296Z,101280.69
2023-04-02T07:26:03.327Z,101282.63
2023-04-02T07:28:30.342Z,101288.66
2023-04-02T07:30:57.099Z,101284.00
2023-04-02T07:33:23.839Z,101295.22
2023-04-02T07:35:50.824Z,101294.53
2023-04-02T07:38:17.586Z,101302.59
2023-04-02T07:40:44.343Z,101300.22
2023-04-02T07:43:11.294Z,101309.09
2023-04-02T07:45:38.324Z,101307.16
2023-04-02T07:48:05.589Z,101314.34
2023-04-02T07:50:32.438Z,101313.00
2023-04-02T07:52:59.209Z,101319.38
2023-04-02T07:55:25.962Z,101328.72
2023-04-02T07:57:52.719Z,101322.69
2023-04-02T08:00:20.508Z,101328.59
2023-04-02T08:02:47.356Z,101337.06
2023-04-02T08:05:14.527Z,101336.44
2023-04-02T08:07:41.522Z,101346.09
2023-04-02T08:10:08.289Z,101340.09
2023-04-02T08:12:35.337Z,101354.06
2023-04-02T08:15:02.152Z,101351.53
2023-04-02T08:17:31.338Z,101365.72
2023-04-02T08:20:00.981Z,101359.09
2023-04-02T08:22:27.804Z,101371.38
2023-04-02T08:24:54.556Z,101376.69
2023-04-02T08:27:21.807Z,101376.66
2023-04-02T08:29:48.562Z,101383.63
2023-04-02T08:32:18.499Z,101384.88
2023-04-02T08:34:45.401Z,101387.84
2023-04-02T08:37:12.148Z,101395.88
2023-04-02T08:39:38.919Z,101404.50
2023-04-02T08:42:05.826Z,101410.25
2023-04-02T08:44:32.622Z,101413.63
2023-04-02T08:46:59.372Z,101416.34
2023-04-02T08:49:26.928Z,101423.31
2023-04-02T08:51:53.683Z,101422.47
2023-04-02T08:54:20.426Z,101432.56
2023-04-02T08:56:47.262Z,101428.38
2023-04-02T08:59:14.031Z,101435.97
2023-04-02T09:01:41.409Z,101439.34
2023-04-02T09:04:08.289Z,101437.66
2023-04-02T09:06:35.155Z,101435.03
2023-04-02T09:09:02.034Z,101444.19
2023-04-02T09:11:28.906Z,101447.84
2023-04-02T09:13:55.899Z,101445.06
2023-04-02T09:16:23.008Z,101446.25
2023-04-02T09:18:49.837Z,101447.97
2023-04-02T09:21:17.218Z,101462.22
2023-04-02T09:23:43.969Z,101466.22
2023-04-02T09:26:10.738Z,101462.59
2023-04-02T09:28:37.466Z,101468.97
2023-04-02T09:31:06.656Z,101464.53
2023-04-02T09:33:34.563Z,101473.41
2023-04-02T09:36:01.381Z,101474.44
2023-04-02T09:38:30.722Z,101481.22
2023-04-02T09:40:58.526Z,101487.34
2023-04-02T09:43:25.421Z,101474.03
2023-04-02T09:45:52.213Z,101489.06
2023-04-02T09:48:19.212Z,101500.47
2023-04-02T09:50:46.075Z,101490.53
2023-04-02T09:53:12.833Z,101500.44
2023-04-02T09:55:39.604Z,101503.41
2023-04-02T09:58:06.985Z,101497.50
2023-04-02T10:00:34.215Z,101511.38
2023-04-02T10:03:01.356Z,101520.34
2023-04-02T10:05:40.041Z,101515.00
2023-04-02T10:08:08.358Z,101516.94
2023-04-02T10:10:35.401Z,101516.94
2023-04-02T10:13:02.380Z,101525.91
2023-04-02T10:15:29.361Z,101533.72
2023-04-02T10:17:56.316Z,101534.28
2023-04-02T10:20:23.079Z,101534.09
2023-04-02T10:22:50.110Z,101536.91
2023-04-02T10:25:16.956Z,101547.31
2023-04-02T10:27:44.489Z,101544.34
2023-04-02T10:30:11.362Z,101548.16
2023-04-02T10:32:38.227Z,101544.56
2023-04-02T10:35:05.144Z,101544.97
2023-04-02T10:37:32.135Z,101557.69
2023-04-02T10:39:58.870Z,101561.47
2023-04-02T10:42:25.605Z,101560.03
2023-04-02T10:44:52.397Z,101559.41
2023-04-02T10:47:19.174Z,101572.09
2023-04-02T10:49:45.952Z,101570.81
2023-04-02T10:52:13.574Z,101565.94
2023-04-02T10:54:40.572Z,101575.47
2023-04-02T10:57:07.391Z,101577.19
2023-04-02T10:59:34.215Z,101581.81
2023-04-02T11:02:00.998Z,101582.03
2023-04-02T11:04:27.823Z,101582.38
2023-04-02T11:07:07.269Z,101588.44
2023-04-02T11:09:40.450Z,101593.94
2023-04-02T11:12:07.225Z,101597.16
2023-04-02T11:14:34.178Z,101608.00
2023-04-02T11:17:02.661Z,101603.00
2023-04-02T11:19:29.527Z,101614.06
2023-04-02T11:22:00.258Z,101615.66
2023-04-02T11:24:29.962Z,101611.22
2023-04-02T11:26:56.739Z,101616.56
2023-04-02T11:29:23.527Z,101622.25
2023-04-02T11:31:50.835Z,101623.09
2023-04-02T11:34:17.711Z,101617.41
2023-04-02T11:36:44.467Z,101620.16
2023-04-02T11:39:17.324Z,101628.44
2023-04-02T11:41:44.545Z,101624.22
2023-04-02T11:44:11.318Z,101626.78
2023-04-02T11:46:38.075Z,101624.84
2023-04-02T11:49:06.236Z,101628.88
2023-04-02T11:51:33.041Z,101635.03
2023-04-02T11:54:00.253Z,101631.66
2023-04-02T11:56:27.534Z,101629.31
2023-04-02T11:58:54.286Z,101637.56
2023-04-02T12:01:21.269Z,101624.63
2023-04-02T12:03:48.039Z,101628.88
2023-04-02T12:06:16.193Z,101630.97
2023-04-02T12:08:57.129Z,101626.78
2023-04-02T12:11:24.593Z,101626.38
2023-04-02T12:13:51.457Z,101638.84
2023-04-02T12:16:18.293Z,101639.16
2023-04-02T12:18:46.595Z,101642.91
2023-04-02T12:21:13.339Z,101632.84
2023-04-02T12:23:40.113Z,101644.63
2023-04-02T12:26:06.931Z,101652.91
2023-04-02T12:28:33.868Z,101645.94
2023-04-02T12:31:00.693Z,101652.53
2023-04-02T12:33:27.703Z,101647.03
2023-04-02T12:35:54.475Z,101649.59
2023-04-02T12:38:21.418Z,101650.03
2023-04-02T12:40:48.181Z,101651.09
2023-04-02T12:43:15.057Z,101657.84
2023-04-02T12:45:42.702Z,101657.69
2023-04-02T12:48:09.528Z,101656.22
2023-04-02T12:50:36.459Z,101658.34
2023-04-02T12:53:03.381Z,101665.75
2023-04-02T12:55:31.665Z,101654.31
2023-04-02T12:57:58.405Z,101665.75
2023-04-02T13:00:25.550Z,101666.81
2023-04-02T13:02:52.391Z,101662.59
2023-04-02T13:05:19.153Z,101670.00
2023-04-02T13:07:45.924Z,101664.78
2023-04-02T13:10:12.721Z,101672.13
2023-04-02T13:12:39.538Z,101666.19
2023-04-02T13:15:06.389Z,101674.13
2023-04-02T13:17:33.159Z,101678.56
2023-04-02T13:20:00.137Z,101683.72
2023-04-02T13:22:28.381Z,101678.22
2023-04-02T13:24:55.144Z,101680.47
2023-04-02T13:27:21.922Z,101672.75
2023-04-02T13:29:48.680Z,101680.63
2023-04-02T13:32:15.521Z,101685.13
2023-04-02T13:34:42.295Z,101680.69
2023-04-02T13:37:09.061Z,101676.72
2023-04-02T13:39:35.879Z,101675.44
2023-04-02T13:42:02.704Z,101687.75
2023-04-02T13:44:29.524Z,101685.19
2023-04-02T13:46:56.342Z,101679.31
2023-04-02T13:49:23.081Z,101675.94
2023-04-02T13:51:49.905Z,101685.88
2023-04-02T13:54:16.821Z,101687.16
2023-04-02T13:56:43.586Z,101683.34
2023-04-02T13:59:10.446Z,101696.25
2023-04-02T14:01:37.376Z,101689.50
2023-04-02T14:04:05.634Z,101693.28
2023-04-02T14:06:32.528Z,101702.63
2023-04-02T14:08:59.415Z,101690.06
2023-04-02T14:11:26.219Z,101687.66
2023-04-02T14:13:52.985Z,101688.97
2023-04-02T14:16:19.842Z,101692.78
2023-04-02T14:18:46.593Z,101695.16
2023-04-02T14:21:13.392Z,101702.97
2023-04-02T14:23:40.356Z,101710.88
2023-04-02T14:26:07.123Z,101711.25
2023-04-02T14:28:38.073Z,101703.28
2023-04-02T14:31:04.907Z,101708.38
2023-04-02T14:33:31.663Z,101711.38
2023-04-02T14:35:58.450Z,101718.38
2023-04-02T14:38:25.356Z,101719.50
2023-04-02T14:40:52.143Z,101726.06
2023-04-02T14:43:18.904Z,101734.75
2023-04-02T14:45:45.658Z,101723.34
2023-04-02T14:48:12.401Z,101731.03
2023-04-02T14:50:39.202Z,101733.16
2023-04-02T14:53:05.983Z,101728.50
2023-04-02T14:55:32.807Z,101735.69
2023-04-02T14:57:59.800Z,101736.97
2023-04-02T15:00:27.361Z,101741.63
2023-04-02T15:02:54.383Z,101745.44
2023-04-02T15:05:21.250Z,101750.13
2023-04-02T15:07:48.167Z,101751.59
2023-04-02T15:10:15.676Z,101750.06
2023-04-02T15:12:42.572Z,101749.88
2023-04-02T15:15:09.354Z,101750.78
2023-04-02T15:17:36.126Z,101763.78
2023-04-02T15:20:02.929Z,101761.72
2023-04-02T15:22:29.691Z,101765.50
2023-04-02T15:24:56.442Z,101772.03
2023-04-02T15:27:25.502Z,101770.31
2023-04-02T15:29:52.835Z,101776.13
2023-04-02T15:32:19.599Z,101779.56
2023-04-02T15:34:46.339Z,101780.78
2023-04-02T15:37:13.450Z,101774.94
2023-04-02T15:39:40.401Z,101784.88
2023-04-02T15:42:07.178Z,101792.13
2023-04-02T15:44:33.965Z,101780.31
2023-04-02T15:47:00.840Z,101795.34
2023-04-02T15:49:27.604Z,101798.75
2023-04-02T15:51:54.376Z,101800.66
2023-04-02T15:54:21.400Z,101797.38
2023-04-02T15:56:48.186Z,101805.63
2023-04-02T15:59:14.967Z,101806.06
2023-04-02T16:01:41.849Z,101808.44
2023-04-02T16:04:08.927Z,101812.88
2023-04-02T16:06:35.780Z,101818.38
2023-04-02T16:09:02.593Z,101824.31
2023-04-02T16:11:29.340Z,101813.44
2023-04-02T16:13:56.166Z,101820.97
2023-04-02T16:16:23.012Z,101821.69
2023-04-02T16:18:49.822Z,101825.34
2023-04-02T16:21:16.866Z,101832.50
2023-04-02T16:23:43.622Z,101847.66
2023-04-02T16:26:12.832Z,101847.38
2023-04-02T16:28:39.635Z,101853.88
2023-04-02T16:31:06.402Z,101863.53
2023-04-02T16:33:33.222Z,101861.25
2023-04-02T16:36:00.038Z,101860.69
2023-04-02T16:38:26.807Z,101869.88
2023-04-02T16:41:06.994Z,101870.03
2023-04-02T16:43:34.948Z,101875.00
2023-04-02T16:46:01.720Z,101872.53
2023-04-02T16:48:28.588Z,101881.00
2023-04-02T16:50:55.501Z,101884.41
2023-04-02T16:53:22.289Z,101890.84
2023-04-02T16:55:49.048Z,101898.00
2023-04-02T16:58:16.106Z,101891.00
2023-04-02T17:00:42.892Z,101900.38
2023-04-02T17:03:09.858Z,101903.59
2023-04-02T17:05:36.869Z,101908.22
2023-04-02T17:08:03.705Z,101916.53
2023-04-02T17:10:30.669Z,101914.97
2023-04-02T17:12:57.499Z,101914.19
2023-04-02T17:15:28.199Z,101914.47
2023-04-02T17:17:55.505Z,101922.09
2023-04-02T17:20:22.309Z,101916.19
2023-04-02T17:22:49.103Z,101928.09
2023-04-02T17:25:15.906Z,101929.22
2023-04-02T17:27:42.680Z,101943.22
2023-04-02T17:30:09.528Z,101943.03
2023-04-02T17:32:36.869Z,101953.94
2023-04-02T17:35:03.704Z,101953.88
2023-04-02T17:37:30.451Z,101963.03
2023-04-02T17:39:57.192Z,101970.22
2023-04-02T17:42:23.940Z,101979.63
2023-04-02T17:44:50.755Z,101974.50
2023-04-02T17:47:17.501Z,101980.31
2023-04-02T17:49:44.271Z,101992.47
2023-04-02T17:52:11.465Z,101985.28
2023-04-02T17:54:38.264Z,101995.09
2023-04-02T17:57:05.058Z,101993.56
2023-04-02T17:59:31.848Z,102007.66
2023-04-02T18:01:58.636Z,102013.81
2023-04-02T18:04:25.408Z,102018.06
2023-04-02T18:06:52.158Z,102014.22
2023-04-02T18:09:19.205Z,102020.03
2023-04-02T18:11:46.002Z,102021.69
2023-04-02T18:14:12.744Z,102018.59
2023-04-02T18:16:39.559Z,102029.34
2023-04-02T18:19:08.241Z,102026.63
2023-04-02T18:21:34.989Z,102030.25
2023-04-02T18:24:01.796Z,102037.78
2023-04-02T18:26:28.603Z,102042.91
2023-04-02T18:28:55.442Z,102046.44
2023-04-02T18:31:22.264Z,102050.38
2023-04-02T18:33:49.433Z,102060.44
2023-04-02T18:36:16.300Z,102059.47
2023-04-02T18:38:43.158Z,102065.53
2023-04-02T18:41:09.943Z,102068.13
2023-04-02T18:43:36.735Z,102075.88
2023-04-02T18:46:05.126Z,102079.66
2023-04-02T18:48:31.987Z,102087.16
2023-04-02T18:50:58.741Z,102087.03
2023-04-02T18:53:25.712Z,102088.31
2023-04-02T18:55:52.521Z,102096.31
2023-04-02T18:58:19.328Z,102108.94
2023-04-02T19:00:46.090Z,102110.94
2023-04-02T19:03:13.037Z,102110.44
2023-04-02T19:05:40.721Z,102118.28
2023-04-02T19:08:07.532Z,102118.13
2023-04-02T19:10:34.297Z,102124.31
2023-04-02T19:13:01.380Z,102125.50
2023-04-02T19:15:28.176Z,102129.06
2023-04-02T19:17:54.991Z,102124.69
2023-04-02T19:20:21.813Z,102130.59
2023-04-02T19:22:48.565Z,102137.50
2023-04-02T19:25:15.700Z,102142.03
2023-04-02T19:27:42.448Z,102144.16
2023-04-02T19:30:09.492Z,102135.41
2023-04-02T19:32:36.326Z,102147.63
2023-04-02T19:35:03.147Z,102154.63
2023-04-02T19:37:29.874Z,102147.16
2023-04-02T19:39:57.321Z,102158.31
2023-04-02T19:42:24.084Z,102160.41
2023-04-02T19:44:50.854Z,102163.88
2023-04-02T19:47:17.627Z,102169.25
2023-04-02T19:49:44.390Z,102169.41
2023-04-02T19:52:11.154Z,102172.22
2023-04-02T19:54:38.704Z,102165.59
2023-04-02T19:57:05.703Z,102177.38
2023-04-02T19:59:32.639Z,102182.88
2023-04-02T20:01:59.419Z,102188.66
2023-04-02T20:04:26.229Z,102176.56
2023-04-02T20:06:54.263Z,102181.97
2023-04-02T20:09:21.770Z,102189.38
2023-04-02T20:11:48.844Z,102195.47
2023-04-02T20:14:15.674Z,102186.22
2023-04-02T20:16:44.531Z,102198.88
2023-04-02T20:19:12.510Z,102206.22
2023-04-02T20:21:39.351Z,102209.22
2023-04-02T20:24:06.110Z,102202.53
2023-04-02T20:26:32.874Z,102206.97
2023-04-02T20:28:59.635Z,102211.50
2023-04-02T20:31:26.546Z,102218.91
2023-04-02T20:33:53.486Z,102216.44
2023-04-02T20:36:20.275Z,102224.19
2023-04-02T20:38:47.034Z,102226.69
2023-04-02T20:41:15.964Z,102226.56
2023-04-02T20:43:42.855Z,102238.44
2023-04-02T20:46:11.704Z,102233.06
2023-04-02T20:48:39.248Z,102238.28
2023-04-02T20:51:06.043Z,102250.97
2023-04-02T20:53:33.552Z,102250.25
2023-04-02T20:56:00.305Z,102261.66
2023-04-02T20:58:27.080Z,102255.69
2023-04-02T21:00:53.867Z,102254.66
2023-04-02T21:03:20.647Z,102255.41
2023-04-02T21:05:47.450Z,102257.59
2023-04-02T21:08:14.237Z,102258.38
2023-04-02T21:10:41.116Z,102267.22
2023-04-02T21:13:07.878Z,102265.91
2023-04-02T21:15:34.937Z,102269.78
2023-04-02T21:18:02.219Z,102270.22
2023-04-02T21:20:29.083Z,102278.91
2023-04-02T21:22:55.949Z,102280.72
2023-04-02T21:25:22.724Z,102284.03
2023-04-02T21:27:49.556Z,102276.44
2023-04-02T21:30:16.365Z,102272.00
2023-04-02T21:32:43.210Z,102276.97
2023-04-02T21:35:10.148Z,102275.53
2023-04-02T21:37:36.910Z,102282.59
2023-04-02T21:40:03.657Z,102281.53
2023-04-02T21:42:30.462Z,102275.97
2023-04-02T21:44:57.312Z,102282.25
2023-04-02T21:47:24.807Z,102280.50
2023-04-02T21:49:51.568Z,102295.41
2023-04-02T21:52:18.351Z,102302.03
2023-04-02T21:54:45.117Z,102301.66
2023-04-02T21:57:11.892Z,102303.81
2023-04-02T21:59:38.729Z,102310.53
2023-04-02T22:02:06.803Z,102313.28
2023-04-02T22:04:33.704Z,102305.94
2023-04-02T22:07:00.761Z,102306.63
2023-04-02T22:09:27.545Z,102317.63
2023-04-02T22:11:54.455Z,102312.66
2023-04-02T22:14:21.400Z,102319.94
2023-04-02T22:16:48.224Z,102319.72
2023-04-02T22:19:15.067Z,102330.09
2023-04-02T22:21:41.892Z,102328.06
2023-04-02T22:24:11.444Z,102332.84
2023-04-02T22:26:38.253Z,102335.41
2023-04-02T22:29:05.027Z,102333.66
2023-04-02T22:31:33.072Z,102337.56
2023-04-02T22:34:00.131Z,102333.47
2023-04-02T22:36:26.997Z,102337.13
2023-04-02T22:38:53.755Z,102341.91
2023-04-02T22:41:21.441Z,102346.38
2023-04-02T22:43:48.232Z,102344.06
2023-04-02T22:46:15.094Z,102345.88
2023-04-02T22:48:42.238Z,102350.81
2023-04-02T22:51:09.162Z,102343.00
2023-04-02T22:53:36.498Z,102343.34
2023-04-02T22:56:03.439Z,102347.41
2023-04-02T22:58:30.224Z,102344.25
2023-04-02T23:00:56.966Z,102354.69
2023-04-02T23:03:23.732Z,102351.84
2023-04-02T23:05:50.610Z,102350.22
2023-04-02T23:08:17.372Z,102353.56
2023-04-02T23:10:44.124Z,102357.50
2023-04-02T23:13:10.969Z,102362.25
2023-04-02T23:15:37.786Z,102354.75
2023-04-02T23:18:04.617Z,102363.91
2023-04-02T23:20:31.399Z,102363.84
2023-04-02T23:22:58.129Z,102358.78
2023-04-02T23:25:24.899Z,102363.63
2023-04-02T23:27:51.675Z,102364.56
2023-04-02T23:30:18.422Z,102363.00
2023-04-02T23:32:45.200Z,102359.22
2023-04-02T23:35:11.966Z,102360.72
2023-04-02T23:37:38.757Z,102370.13
2023-04-02T23:40:06.020Z,102366.94
2023-04-02T23:42:32.874Z,102374.34
2023-04-02T23:44:59.650Z,102365.25
2023-04-02T23:47:26.473Z,102367.03
2023-04-02T23:49:53.281Z,102370.16
2023-04-02T23:52:20.129Z,102376.25
2023-04-02T23:54:47.015Z,102370.06
2023-04-02T23:57:14.908Z,102371.34
2023-04-02T23:59:41.713Z,102384.72
